Time;durP1;ratioP1;P1;durP2;ratioP2;P2;SDS_P1;SDS_P2;PMS_P1;PMS_P2;Temp;Humidity;BMP_temperature;BMP_pressure;BME280_temperature;BME280_humidity;BME280_pressure;Samples;Min_cycle;Max_cycle;Signal;HPM_P1;HPM_P2
2021/02/06 00:00:42;;;;;;;;;45.25;34.50;;;;;0.97;85.31;101417.66;3725948;37;21162;-63
2021/02/06 00:03:09;;;;;;;;;21.75;18.25;;;;;0.92;85.04;101411.78;3725814;37;21163;-63
2021/02/06 00:05:35;;;;;;;;;41.75;37.00;;;;;0.90;85.05;101406.53;3725882;37;21063;-64
2021/02/06 00:08:01;;;;;;;;;38.25;31.50;;;;;0.87;85.26;101409.41;3725667;38;21113;-63
2021/02/06 00:10:28;;;;;;;;;42.00;37.50;;;;;0.83;85.34;101407.91;3725776;37;21119;-62
2021/02/06 00:12:54;;;;;;;;;39.75;36.50;;;;;0.76;85.48;101395.06;3725438;37;21124;-62
2021/02/06 00:15:20;;;;;;;;;44.00;36.75;;;;;0.84;85.67;101406.94;3725594;38;21058;-63
2021/02/06 00:17:46;;;;;;;;;43.00;32.75;;;;;0.89;85.60;101407.50;3725709;37;21074;-62
2021/02/06 00:20:13;;;;;;;;;39.25;33.25;;;;;0.89;85.40;101401.31;3725827;37;21132;-63
2021/02/06 00:22:39;;;;;;;;;39.00;32.25;;;;;0.78;85.44;101395.81;3725555;37;21073;-63
2021/02/06 00:25:06;;;;;;;;;37.00;32.25;;;;;0.77;85.70;101394.13;3725919;38;21026;-63
2021/02/06 00:27:33;;;;;;;;;37.00;30.25;;;;;0.79;85.83;101406.37;3725689;37;21065;-63
2021/02/06 00:29:59;;;;;;;;;39.25;33.50;;;;;0.78;86.12;101401.16;3726723;37;21128;-64
2021/02/06 00:32:27;;;;;;;;;27.25;19.25;;;;;0.73;86.07;101401.44;3726196;37;21055;-63
2021/02/06 00:34:54;;;;;;;;;39.00;27.00;;;;;0.76;86.16;101389.75;3727001;38;21071;-64
2021/02/06 00:37:20;;;;;;;;;43.75;37.25;;;;;0.77;86.00;101376.31;3727617;37;21097;-63
2021/02/06 00:39:47;;;;;;;;;42.00;38.00;;;;;0.84;86.11;101364.31;3725977;37;21042;-63
2021/02/06 00:42:13;;;;;;;;;40.75;36.50;;;;;0.86;85.63;101372.19;3725582;37;21053;-64
2021/02/06 00:44:39;;;;;;;;;48.25;38.25;;;;;0.88;85.69;101364.94;3725603;37;21055;-64
2021/02/06 00:47:05;;;;;;;;;38.00;32.00;;;;;0.66;86.05;101323.75;3725727;38;21073;-63
2021/02/06 00:49:31;;;;;;;;;46.25;38.50;;;;;0.65;86.01;101335.34;3725455;38;21102;-64
2021/02/06 00:51:57;;;;;;;;;44.50;32.75;;;;;0.81;85.98;101361.84;3725718;37;21102;-64
2021/02/06 00:54:24;;;;;;;;;43.75;35.25;;;;;0.70;85.95;101364.34;3725268;37;21105;-64
2021/02/06 00:56:50;;;;;;;;;32.00;27.50;;;;;0.66;85.69;101362.84;3725507;38;21057;-62
2021/02/06 00:59:16;;;;;;;;;48.50;39.50;;;;;0.71;86.24;101366.06;3725049;38;21051;-62
2021/02/06 01:01:42;;;;;;;;;41.75;32.25;;;;;0.72;86.32;101364.25;3725110;38;21083;-64
2021/02/06 01:04:08;;;;;;;;;48.75;40.75;;;;;0.55;86.12;101318.25;3725177;37;21082;-62
2021/02/06 01:06:35;;;;;;;;;43.50;36.00;;;;;0.75;85.77;101348.91;3725666;37;21112;-62
2021/02/06 01:09:01;;;;;;;;;56.25;39.00;;;;;0.70;86.18;101343.03;3725809;38;21001;-62
2021/02/06 01:11:27;;;;;;;;;49.00;38.75;;;;;0.53;86.16;101325.50;3725516;38;21163;-64
2021/02/06 01:13:53;;;;;;;;;38.50;31.50;;;;;0.42;86.32;101311.19;3725556;37;21044;-62
2021/02/06 01:16:19;;;;;;;;;42.50;34.50;;;;;0.67;86.19;101367.22;3725677;37;21017;-64
2021/02/06 01:18:45;;;;;;;;;48.75;39.25;;;;;0.52;86.17;101376.22;3725572;38;21070;-64
2021/02/06 01:21:11;;;;;;;;;45.00;34.50;;;;;0.59;86.25;101374.84;3725664;38;21005;-64
2021/02/06 01:23:37;;;;;;;;;40.50;33.25;;;;;0.55;86.22;101370.69;3725576;37;21017;-63
2021/02/06 01:26:04;;;;;;;;;49.75;38.25;;;;;0.43;86.80;101350.19;3725632;37;20963;-64
2021/02/06 01:28:30;;;;;;;;;53.75;40.50;;;;;0.55;86.50;101370.69;3725675;38;21020;-66
2021/02/06 01:30:56;;;;;;;;;40.75;34.50;;;;;0.56;86.41;101361.72;3725672;37;21047;-63
2021/02/06 01:33:23;;;;;;;;;47.75;38.50;;;;;0.56;86.56;101359.91;3725515;37;21046;-64
2021/02/06 01:35:49;;;;;;;;;46.50;39.00;;;;;0.50;86.51;101356.84;3725047;38;21024;-63
2021/02/06 01:38:15;;;;;;;;;50.50;39.50;;;;;0.42;86.27;101357.31;3725315;37;20977;-64
2021/02/06 01:40:42;;;;;;;;;40.50;36.50;;;;;0.36;86.52;101340.88;3725553;37;21024;-63
2021/02/06 01:43:07;;;;;;;;;49.75;40.25;;;;;0.48;86.72;101356.06;3725599;38;20979;-65
2021/02/06 01:45:34;;;;;;;;;49.00;39.25;;;;;0.44;86.60;101349.25;3725435;38;20996;-62
2021/02/06 01:48:00;;;;;;;;;54.75;36.00;;;;;0.40;86.38;101350.38;3725404;37;17872;-63
2021/02/06 01:50:26;;;;;;;;;44.25;36.00;;;;;0.46;86.77;101344.66;3725638;37;20997;-62
2021/02/06 01:52:52;;;;;;;;;44.50;36.25;;;;;0.44;86.56;101334.13;3725577;38;21034;-63
2021/02/06 01:55:19;;;;;;;;;45.50;36.50;;;;;0.26;86.58;101335.31;3725676;38;21000;-61
2021/02/06 01:57:45;;;;;;;;;39.50;35.25;;;;;0.23;86.61;101336.34;3725490;37;20986;-63
2021/02/06 02:00:12;;;;;;;;;42.25;33.00;;;;;0.24;86.69;101342.53;3725546;37;20960;-63
2021/02/06 02:02:43;;;;;;;;;54.00;39.50;;;;;0.29;87.07;101346.59;3725581;37;20983;-63
2021/02/06 02:05:10;;;;;;;;;43.75;37.75;;;;;0.18;86.83;101341.13;3725592;38;20975;-62
2021/02/06 02:08:01;;;;;;;;;38.25;36.25;;;;;0.27;87.11;101360.97;3725578;37;20957;-62
2021/02/06 02:11:05;;;;;;;;;40.50;35.00;;;;;0.19;86.75;101353.47;3725607;37;20951;-63
2021/02/06 02:13:51;;;;;;;;;41.25;32.00;;;;;0.20;87.10;101346.34;3725829;37;20971;-62
2021/02/06 02:16:33;;;;;;;;;41.75;33.25;;;;;0.27;87.62;101355.66;3725718;37;20971;-62
2021/02/06 02:19:53;;;;;;;;;41.00;36.50;;;;;0.26;87.41;101357.44;3725550;37;20932;-64
2021/02/06 02:23:18;;;;;;;;;41.00;36.75;;;;;0.23;87.19;101349.66;3725383;38;20925;-62
2021/02/06 02:26:42;;;;;;;;;33.00;25.25;;;;;0.27;87.31;101329.88;3725381;38;20979;-62
2021/02/06 02:29:45;;;;;;;;;42.75;31.25;;;;;0.38;87.27;101323.00;3725327;37;20965;-61
2021/02/06 02:32:12;;;;;;;;;35.25;31.50;;;;;0.42;87.14;101308.53;3725444;37;20978;-64
2021/02/06 02:34:42;;;;;;;;;37.75;33.25;;;;;0.48;87.27;101302.81;3725082;37;20912;-62
2021/02/06 02:37:10;;;;;;;;;33.25;28.50;;;;;0.44;87.31;101293.31;3725323;38;20901;-64
2021/02/06 02:39:38;;;;;;;;;39.25;26.00;;;;;0.38;86.71;101285.72;3725505;38;20919;-64
2021/02/06 02:42:07;;;;;;;;;32.75;27.25;;;;;0.40;86.97;101289.16;3725523;37;20930;-64
2021/02/06 02:44:35;;;;;;;;;38.50;30.75;;;;;0.38;87.12;101299.03;3725373;37;20879;-63
2021/02/06 02:47:03;;;;;;;;;39.00;30.00;;;;;0.34;87.04;101314.38;3725713;37;20873;-63
2021/02/06 02:49:31;;;;;;;;;40.75;32.25;;;;;0.34;86.86;101303.72;3725476;38;20917;-63
2021/02/06 02:51:59;;;;;;;;;33.75;27.25;;;;;0.28;87.05;101288.13;3725610;37;20867;-63
2021/02/06 02:54:27;;;;;;;;;37.25;33.50;;;;;0.30;87.08;101295.06;3725400;38;20984;-62
2021/02/06 02:56:53;;;;;;;;;32.25;29.00;;;;;0.28;87.10;101290.81;3725744;37;20904;-63
2021/02/06 02:59:20;;;;;;;;;30.50;27.50;;;;;0.24;87.15;101287.47;3725696;37;20888;-62
2021/02/06 03:01:46;;;;;;;;;32.25;25.75;;;;;0.27;87.19;101303.25;3725642;38;20883;-62
2021/02/06 03:05:03;;;;;;;;;30.25;25.25;;;;;0.26;87.01;101317.53;3725493;38;20884;-65
2021/02/06 03:07:40;;;;;;;;;27.50;25.50;;;;;0.25;87.31;101310.47;3725971;38;20869;-62
2021/02/06 03:10:08;;;;;;;;;28.00;24.25;;;;;0.24;86.89;101287.47;3726508;37;20879;-65
2021/02/06 03:12:38;;;;;;;;;37.25;27.00;;;;;0.24;87.17;101283.97;3727654;38;20845;-63
2021/02/06 03:15:07;;;;;;;;;37.25;24.25;;;;;0.19;87.26;101275.41;3725957;37;20906;-62
2021/02/06 03:17:39;;;;;;;;;39.00;30.00;;;;;0.21;87.30;101292.16;3725285;38;20897;-65
2021/02/06 03:20:10;;;;;;;;;26.00;24.75;;;;;0.25;87.21;101325.59;3725608;37;20876;-64
2021/02/06 03:22:40;;;;;;;;;28.25;26.00;;;;;0.20;87.04;101320.56;3725383;37;20858;-63
2021/02/06 03:25:07;;;;;;;;;37.75;29.25;;;;;0.20;87.16;101319.72;3725482;38;20858;-62
2021/02/06 03:27:34;;;;;;;;;31.50;27.00;;;;;0.24;87.15;101340.72;3725500;38;20909;-63
2021/02/06 03:30:04;;;;;;;;;30.50;28.50;;;;;0.21;87.27;101340.06;3725398;37;21836;-62
2021/02/06 03:32:30;;;;;;;;;31.25;25.75;;;;;0.22;87.12;101328.47;3725552;38;20837;-64
2021/02/06 03:34:57;;;;;;;;;42.25;32.25;;;;;0.28;87.32;101315.63;3725560;38;20853;-63
2021/02/06 03:37:23;;;;;;;;;37.75;28.00;;;;;0.38;87.28;101321.19;3725413;38;20884;-64
2021/02/06 03:39:49;;;;;;;;;30.25;25.50;;;;;0.38;86.97;101299.91;3725463;37;20816;-64
2021/02/06 03:42:15;;;;;;;;;32.25;25.25;;;;;0.35;87.13;101289.44;3725347;37;20820;-64
2021/02/06 03:44:41;;;;;;;;;32.25;27.00;;;;;0.18;87.10;101255.94;3725581;37;20858;-62
2021/02/06 03:47:07;;;;;;;;;31.75;27.50;;;;;0.36;86.89;101285.84;3725459;37;20769;-63
2021/02/06 03:49:34;;;;;;;;;36.00;30.25;;;;;0.33;86.80;101281.56;3725310;38;20832;-62
2021/02/06 03:52:00;;;;;;;;;32.00;28.25;;;;;0.35;87.26;101275.28;3725446;38;20813;-62
2021/02/06 03:54:26;;;;;;;;;26.00;25.25;;;;;0.38;87.37;101281.25;3725554;38;20823;-63
2021/02/06 03:56:52;;;;;;;;;26.25;21.75;;;;;0.36;87.18;101269.84;3725539;38;21774;-63
2021/02/06 03:59:19;;;;;;;;;41.00;34.00;;;;;0.42;87.16;101279.25;3725530;38;21800;-63
2021/02/06 04:01:45;;;;;;;;;39.25;29.75;;;;;0.41;87.15;101262.41;3725586;38;20830;-64
2021/02/06 04:04:11;;;;;;;;;39.00;31.50;;;;;0.35;86.77;101272.62;3725599;37;21826;-64
2021/02/06 04:06:38;;;;;;;;;38.00;31.50;;;;;0.26;86.93;101279.41;3725546;37;20851;-62
2021/02/06 04:09:04;;;;;;;;;31.25;25.00;;;;;0.23;87.28;101276.94;3725489;37;21810;-64
2021/02/06 04:11:30;;;;;;;;;32.75;26.50;;;;;0.26;87.25;101266.09;3725508;38;21807;-63
2021/02/06 04:13:57;;;;;;;;;40.00;32.00;;;;;0.27;87.19;101270.47;3725280;37;21776;-62
2021/02/06 04:16:23;;;;;;;;;37.25;29.75;;;;;0.25;87.23;101270.56;3725422;38;21792;-62
2021/02/06 04:18:49;;;;;;;;;34.00;27.75;;;;;0.22;87.37;101237.97;3725370;38;22132;-63
2021/02/06 04:21:17;;;;;;;;;28.50;26.00;;;;;0.35;87.31;101256.66;3725492;37;21799;-62
2021/02/06 04:23:46;;;;;;;;;35.00;27.00;;;;;0.30;86.84;101257.78;3725583;37;21785;-62
2021/02/06 04:26:12;;;;;;;;;39.75;29.25;;;;;0.28;87.32;101275.69;3725654;37;21754;-63
2021/02/06 04:28:38;;;;;;;;;32.50;25.50;;;;;0.24;87.45;101271.50;3725583;37;21452;-62
2021/02/06 04:31:05;;;;;;;;;37.75;28.25;;;;;0.18;87.33;101263.91;3725327;38;21772;-64
2021/02/06 04:33:32;;;;;;;;;33.25;27.75;;;;;0.18;86.97;101276.38;3725838;37;21790;-64
2021/02/06 04:35:58;;;;;;;;;34.00;27.75;;;;;0.24;87.52;101246.69;3725497;37;21760;-63
2021/02/06 04:38:25;;;;;;;;;34.25;26.50;;;;;0.26;87.27;101227.00;3725474;37;21766;-63
2021/02/06 04:40:51;;;;;;;;;33.00;30.00;;;;;0.27;87.37;101258.00;3725697;38;21756;-62
2021/02/06 04:43:17;;;;;;;;;26.50;26.50;;;;;0.23;87.32;101301.75;3725685;37;21740;-64
2021/02/06 04:45:43;;;;;;;;;33.75;27.50;;;;;0.11;87.61;101299.88;3725504;38;21734;-63
2021/02/06 04:48:12;;;;;;;;;30.25;24.75;;;;;0.08;87.44;101289.41;3725699;37;21743;-62
2021/02/06 04:50:38;;;;;;;;;33.25;31.25;;;;;0.05;87.24;101291.41;3725609;37;21715;-63
2021/02/06 04:53:05;;;;;;;;;29.75;25.00;;;;;0.02;87.23;101276.50;3725589;38;21702;-62
2021/02/06 04:55:33;;;;;;;;;33.00;28.50;;;;;-0.01;87.46;101268.75;3725710;37;21762;-64
2021/02/06 04:58:02;;;;;;;;;28.50;25.00;;;;;-0.01;87.55;101285.56;3725529;38;21725;-64
2021/02/06 05:00:31;;;;;;;;;31.75;25.00;;;;;-0.05;87.68;101301.81;3725902;37;21728;-63
2021/02/06 05:02:58;;;;;;;;;28.50;25.00;;;;;-0.17;87.32;101314.09;3725576;38;21736;-64
2021/02/06 05:05:27;;;;;;;;;29.75;22.25;;;;;-0.22;87.47;101323.31;3725569;38;21727;-63
2021/02/06 05:07:53;;;;;;;;;25.75;24.50;;;;;-0.34;87.46;101324.94;3725429;37;21712;-62
2021/02/06 05:10:36;;;;;;;;;25.50;25.00;;;;;-0.40;87.58;101319.97;3725692;37;21719;-63
2021/02/06 05:13:17;;;;;;;;;23.25;16.25;;;;;-0.57;87.48;101307.75;3725773;37;21650;-64
2021/02/06 05:15:45;;;;;;;;;24.50;22.00;;;;;-0.47;87.71;101326.62;3725844;38;21674;-63
2021/02/06 05:18:49;;;;;;;;;33.25;19.50;;;;;-0.73;87.82;101283.06;3725537;37;21685;-64
2021/02/06 05:21:27;;;;;;;;;35.00;22.50;;;;;-0.52;87.76;101304.81;3725649;37;21717;-62
2021/02/06 05:24:02;;;;;;;;;24.50;22.75;;;;;-0.53;88.13;101349.16;3725737;38;21684;-62
2021/02/06 05:26:31;;;;;;;;;28.00;21.25;;;;;-0.61;88.05;101342.59;3725553;38;21680;-63
2021/02/06 05:29:04;;;;;;;;;28.75;24.00;;;;;-0.64;87.86;101316.19;3725752;37;21713;-63
2021/02/06 05:31:46;;;;;;;;;28.75;24.25;;;;;-0.77;88.00;101295.66;3725695;38;21779;-62
2021/02/06 05:34:14;;;;;;;;;27.25;21.25;;;;;-0.65;88.38;101319.78;3725634;38;21678;-62
2021/02/06 05:36:52;;;;;;;;;24.50;21.50;;;;;-0.64;88.16;101334.81;3725514;37;21674;-64
2021/02/06 05:39:29;;;;;;;;;28.00;24.25;;;;;-0.77;88.02;101294.81;3725692;38;21678;-63
2021/02/06 05:42:06;;;;;;;;;33.25;27.50;;;;;-0.75;88.11;101296.44;3727312;38;21670;-63
2021/02/06 05:44:38;;;;;;;;;28.25;25.25;;;;;-0.87;88.24;101270.59;3725936;38;21683;-64
2021/02/06 05:47:16;;;;;;;;;35.00;28.75;;;;;-0.58;88.19;101306.03;3728484;37;21658;-63
2021/02/06 05:49:47;;;;;;;;;32.50;24.75;;;;;-0.57;88.11;101321.03;3726102;38;21651;-64
2021/02/06 05:52:14;;;;;;;;;25.50;19.50;;;;;-0.59;87.88;101311.44;3725678;37;21686;-61
2021/02/06 05:54:43;;;;;;;;;35.25;28.25;;;;;-0.58;87.86;101315.81;3725610;37;21638;-64
2021/02/06 05:57:11;;;;;;;;;31.50;27.25;;;;;-0.69;87.75;101321.78;3725401;37;21680;-65
2021/02/06 05:59:39;;;;;;;;;25.00;19.75;;;;;-0.75;87.62;101325.66;3725479;37;21654;-63
2021/02/06 06:02:06;;;;;;;;;24.50;20.75;;;;;-0.95;87.60;101302.09;3725693;37;21644;-64
2021/02/06 06:04:34;;;;;;;;;26.25;22.50;;;;;-0.83;87.52;101345.69;3725524;38;21637;-63
2021/02/06 06:07:01;;;;;;;;;26.75;23.50;;;;;-0.81;87.81;101365.03;3725547;38;21629;-64
2021/02/06 06:09:31;;;;;;;;;30.25;27.00;;;;;-0.77;87.91;101359.47;3725899;37;21649;-63
2021/02/06 06:12:37;;;;;;;;;24.25;21.25;;;;;-0.77;87.71;101347.97;3725682;37;21604;-63
2021/02/06 06:15:06;;;;;;;;;22.50;20.00;;;;;-0.75;87.67;101319.50;3725720;38;21627;-63
2021/02/06 06:17:33;;;;;;;;;26.50;22.25;;;;;-0.77;87.32;101345.31;3725759;38;21599;-63
2021/02/06 06:20:00;;;;;;;;;27.50;19.25;;;;;-0.84;87.32;101359.91;3725731;37;21616;-63
2021/02/06 06:22:27;;;;;;;;;29.00;23.25;;;;;-0.92;87.41;101347.06;3725696;37;21637;-63
2021/02/06 06:24:55;;;;;;;;;23.00;20.00;;;;;-1.11;86.86;101338.50;3725624;38;21621;-62
2021/02/06 06:27:23;;;;;;;;;31.00;24.00;;;;;-1.13;87.04;101359.84;3725613;37;21597;-63
2021/02/06 06:29:53;;;;;;;;;23.25;19.00;;;;;-1.18;87.03;101382.28;3725657;37;21590;-64
2021/02/06 06:32:22;;;;;;;;;27.00;19.50;;;;;-1.36;86.95;101345.22;3726039;37;21600;-64
2021/02/06 06:34:50;;;;;;;;;24.00;20.50;;;;;-1.25;87.10;101355.22;3725698;38;21652;-63
2021/02/06 06:37:34;;;;;;;;;27.50;23.00;;;;;-1.26;87.08;101350.88;3725637;38;21601;-62
2021/02/06 06:40:02;;;;;;;;;25.75;23.75;;;;;-1.25;87.07;101344.63;3725432;38;21583;-64
2021/02/06 06:42:39;;;;;;;;;24.00;18.75;;;;;-1.17;87.23;101331.75;3725528;37;21592;-63
2021/02/06 06:45:09;;;;;;;;;27.50;23.50;;;;;-1.16;87.15;101329.94;3725532;37;21573;-65
2021/02/06 06:47:36;;;;;;;;;28.00;22.50;;;;;-1.18;86.95;101330.03;3725399;38;21855;-65
2021/02/06 06:50:05;;;;;;;;;19.75;18.75;;;;;-1.18;86.78;101342.47;3725634;37;21592;-67
2021/02/06 06:52:34;;;;;;;;;25.50;21.50;;;;;-1.24;86.79;101333.03;3725823;37;21549;-63
2021/02/06 06:55:02;;;;;;;;;36.25;22.25;;;;;-1.36;86.67;101320.47;3725409;37;21561;-64
2021/02/06 06:57:29;;;;;;;;;24.50;19.25;;;;;-1.23;86.73;101337.41;3725453;37;21603;-66
2021/02/06 06:59:57;;;;;;;;;27.25;24.00;;;;;-1.23;86.75;101334.75;3725603;38;21554;-64
2021/02/06 07:02:51;;;;;;;;;27.00;20.00;;;;;-1.25;86.50;101346.41;3725612;38;21567;-64
2021/02/06 07:05:18;;;;;;;;;23.75;22.00;;;;;-1.20;86.26;101334.59;3725685;37;21539;-63
2021/02/06 07:07:46;;;;;;;;;24.25;20.00;;;;;-1.33;86.71;101318.50;3725752;38;21551;-65
2021/02/06 07:10:58;;;;;;;;;29.00;22.50;;;;;-1.54;86.20;101316.22;3725633;37;21539;-62
2021/02/06 07:13:32;;;;;;;;;7.50;4.25;;;;;-1.43;86.21;101361.59;3726173;37;21553;-63
2021/02/06 07:16:04;;;;;;;;;26.25;24.25;;;;;-1.40;86.12;101380.00;3725919;37;21421;-61
2021/02/06 07:18:46;;;;;;;;;26.50;24.00;;;;;-1.39;86.36;101342.75;3725706;38;21522;-63
2021/02/06 07:21:32;;;;;;;;;30.50;25.50;;;;;-1.25;86.23;101352.59;3725939;37;21539;-67
2021/02/06 07:24:03;;;;;;;;;23.50;19.00;;;;;-1.37;86.33;101358.59;3725664;38;21525;-64
2021/02/06 07:26:40;;;;;;;;;22.50;17.00;;;;;-1.39;86.03;101344.53;3725917;37;21526;-69
2021/02/06 07:29:14;;;;;;;;;24.00;19.00;;;;;-1.43;85.99;101349.19;3725591;38;21571;-67
2021/02/06 07:31:51;;;;;;;;;22.25;20.00;;;;;-1.47;86.50;101338.81;3725887;37;21511;-64
2021/02/06 07:34:17;;;;;;;;;42.25;32.75;;;;;-1.38;86.94;101322.38;3725866;38;21510;-65
2021/02/06 07:36:59;;;;;;;;;31.25;26.50;;;;;-1.21;86.21;101338.19;3726112;38;21608;-72
2021/02/06 07:39:25;;;;;;;;;28.25;23.50;;;;;-1.35;85.67;101317.72;3725608;37;21487;-65
2021/02/06 07:41:52;;;;;;;;;33.00;25.75;;;;;-1.37;85.67;101284.25;3725888;37;21477;-67
2021/02/06 07:44:18;;;;;;;;;33.00;25.25;;;;;-1.51;86.02;101236.41;3726224;38;21481;-65
2021/02/06 07:46:50;;;;;;;;;35.75;29.50;;;;;-0.87;85.90;101334.38;3725896;37;21492;-69
2021/02/06 07:49:25;;;;;;;;;34.00;27.25;;;;;-0.78;85.84;101341.78;3725508;38;21509;-68
2021/02/06 07:51:55;;;;;;;;;28.75;25.75;;;;;-0.71;85.58;101336.97;3725821;38;21498;-72
2021/02/06 07:54:22;;;;;;;;;33.75;29.25;;;;;-0.67;85.43;101342.00;3725815;37;21477;-66
2021/02/06 07:56:48;;;;;;;;;22.75;19.75;;;;;-0.65;85.08;101339.25;3725624;38;21575;-70
2021/02/06 07:59:19;;;;;;;;;25.50;19.25;;;;;-0.85;84.59;101337.78;3725777;37;21470;-68
2021/02/06 08:01:47;;;;;;;;;27.75;22.50;;;;;-1.02;84.59;101314.03;3725813;37;21494;-67
2021/02/06 08:04:14;;;;;;;;;30.25;28.00;;;;;-1.11;84.54;101309.28;3725719;38;21467;-69
2021/02/06 08:06:44;;;;;;;;;25.50;21.75;;;;;-0.99;84.91;101327.12;3725772;38;21487;-71
2021/02/06 08:09:20;;;;;;;;;30.75;25.50;;;;;-1.17;84.61;101309.66;3725963;38;21480;-72
2021/02/06 08:11:46;;;;;;;;;36.50;28.50;;;;;-0.76;85.35;101341.72;3726245;38;21474;-72
2021/02/06 08:14:18;;;;;;;;;37.00;26.75;;;;;-0.78;84.58;101328.50;3726113;37;21448;-69
2021/02/06 08:16:50;;;;;;;;;24.00;19.50;;;;;-0.92;84.22;101306.38;3727311;37;21496;-68
2021/02/06 08:19:19;;;;;;;;;26.25;24.25;;;;;-0.91;84.17;101329.31;3726596;37;21436;-64
2021/02/06 08:21:46;;;;;;;;;27.50;26.25;;;;;-0.97;83.98;101317.25;3726730;38;21460;-69
2021/02/06 08:24:12;;;;;;;;;23.00;20.25;;;;;-0.95;83.84;101341.09;3728746;38;21440;-69
2021/02/06 08:26:40;;;;;;;;;30.25;23.75;;;;;-0.91;83.98;101324.00;3726169;38;21434;-68
2021/02/06 08:29:24;;;;;;;;;33.00;24.00;;;;;-1.01;84.17;101316.59;3725161;37;21541;-68
2021/02/06 08:32:02;;;;;;;;;37.50;26.00;;;;;-0.89;84.12;101330.09;3725082;37;21476;-67
2021/02/06 08:34:29;;;;;;;;;27.00;24.50;;;;;-0.87;83.99;101322.88;3725496;38;21486;-68
2021/02/06 08:37:09;;;;;;;;;25.50;20.25;;;;;-0.82;84.03;101318.16;3725212;37;21406;-65
2021/02/06 08:39:36;;;;;;;;;25.50;21.50;;;;;-0.78;83.80;101325.00;3725319;37;21414;-67
2021/02/06 08:42:05;;;;;;;;;26.75;22.25;;;;;-0.73;83.57;101299.84;3725296;37;21452;-66
2021/02/06 08:44:33;;;;;;;;;27.00;22.75;;;;;-0.43;83.71;101314.84;3725326;38;21459;-69
2021/02/06 08:47:01;;;;;;;;;26.50;24.75;;;;;-0.37;83.34;101318.00;3725426;38;21387;-64
2021/02/06 08:49:37;;;;;;;;;28.50;26.25;;;;;-0.37;83.07;101312.66;3724837;38;21425;-63
2021/02/06 08:52:25;;;;;;;;;35.75;28.25;;;;;-0.21;83.12;101325.03;3725478;37;21399;-63
2021/02/06 08:55:27;;;;;;;;;29.25;27.75;;;;;-0.43;82.66;101336.97;3725396;37;21426;-66
2021/02/06 08:58:04;;;;;;;;;25.25;22.50;;;;;-0.70;82.32;101334.22;3725402;38;21403;-66
2021/02/06 09:00:36;;;;;;;;;20.00;17.50;;;;;-0.97;82.32;101311.09;3725693;37;21412;-64
2021/02/06 09:03:08;;;;;;;;;23.25;21.25;;;;;-0.71;83.07;101342.28;3725923;38;21397;-66
2021/02/06 09:05:54;;;;;;;;;32.00;25.50;;;;;-0.60;83.06;101325.69;3726075;37;21396;-66
2021/02/06 09:08:25;;;;;;;;;38.25;32.75;;;;;-0.42;82.99;101322.75;3726256;38;21352;-64
2021/02/06 09:10:53;;;;;;;;;43.25;30.75;;;;;-0.24;83.51;101317.22;3725756;37;21373;-64
2021/02/06 09:13:25;;;;;;;;;37.75;29.50;;;;;-0.06;82.62;101327.56;3725932;37;21427;-65
2021/02/06 09:15:55;;;;;;;;;36.50;26.00;;;;;0.06;83.01;101338.37;3726197;38;21363;-66
2021/02/06 09:18:23;;;;;;;;;23.75;16.25;;;;;-0.30;81.47;101345.06;3726110;38;21397;-66
2021/02/06 09:20:51;;;;;;;;;32.75;27.75;;;;;-0.39;81.88;101335.00;3728224;38;21048;-65
2021/02/06 09:23:18;;;;;;;;;31.50;25.50;;;;;-0.31;82.04;101327.41;3726725;38;21372;-66
2021/02/06 09:25:50;;;;;;;;;34.00;27.50;;;;;-0.19;81.79;101352.37;3725956;37;21401;-65
2021/02/06 09:28:21;;;;;;;;;27.25;25.00;;;;;-0.34;81.54;101341.75;3725947;38;21360;-66
2021/02/06 09:30:50;;;;;;;;;26.75;25.75;;;;;-0.17;82.10;101358.47;3725942;38;21371;-67
2021/02/06 09:33:17;;;;;;;;;26.75;23.25;;;;;-0.17;81.80;101342.50;3725820;37;21345;-64
2021/02/06 09:35:43;;;;;;;;;37.75;31.50;;;;;-0.11;82.07;101332.34;3725855;38;21331;-64
2021/02/06 09:38:10;;;;;;;;;37.25;33.00;;;;;-0.01;81.89;101340.59;3725893;37;21356;-66
2021/02/06 09:40:37;;;;;;;;;23.00;21.75;;;;;-0.14;81.33;101329.00;3726391;38;21333;-66
2021/02/06 09:43:04;;;;;;;;;29.25;25.50;;;;;-0.12;81.75;101327.09;3725973;37;21327;-64
2021/02/06 09:45:31;;;;;;;;;27.75;26.25;;;;;-0.32;81.03;101307.06;3725604;37;21322;-66
2021/02/06 09:47:58;;;;;;;;;24.00;20.25;;;;;-0.44;80.88;101305.16;3725920;37;21310;-65
2021/02/06 09:50:24;;;;;;;;;26.75;25.00;;;;;-0.38;81.60;101302.97;3725667;37;21100;-64
2021/02/06 09:52:51;;;;;;;;;39.25;32.00;;;;;-0.04;81.28;101335.47;3725784;37;21342;-66
2021/02/06 09:55:18;;;;;;;;;32.25;28.75;;;;;0.12;81.63;101340.66;3726178;38;21329;-65
2021/02/06 09:57:45;;;;;;;;;35.75;28.50;;;;;0.06;80.91;101317.94;3725543;38;21327;-64
2021/02/06 10:00:12;;;;;;;;;29.25;21.75;;;;;0.02;80.78;101327.06;3725938;37;21326;-63
2021/02/06 10:02:39;;;;;;;;;29.50;22.00;;;;;0.07;80.33;101337.41;3725855;38;21349;-64
2021/02/06 10:05:07;;;;;;;;;31.50;28.25;;;;;0.21;80.84;101332.94;3725786;37;21307;-64
2021/02/06 10:07:33;;;;;;;;;31.75;27.50;;;;;-0.03;80.20;101300.78;3726126;37;21289;-64
2021/02/06 10:09:59;;;;;;;;;37.25;29.00;;;;;-0.07;80.24;101301.91;3725785;38;21303;-64
2021/02/06 10:12:25;;;;;;;;;28.50;25.25;;;;;0.12;80.34;101317.53;3725627;38;21353;-66
2021/02/06 10:14:51;;;;;;;;;31.25;27.50;;;;;0.33;80.39;101318.84;3725672;37;21293;-65
2021/02/06 10:17:19;;;;;;;;;33.00;27.50;;;;;0.40;80.11;101307.78;3725619;37;21300;-65
2021/02/06 10:19:45;;;;;;;;;30.50;28.25;;;;;0.44;79.82;101303.97;3725642;37;21272;-64
2021/02/06 10:22:11;;;;;;;;;28.25;25.50;;;;;0.51;79.82;101297.28;3725557;37;21278;-66
2021/02/06 10:24:37;;;;;;;;;31.25;29.00;;;;;0.61;79.83;101301.03;3725660;38;21245;-65
2021/02/06 10:27:03;;;;;;;;;29.75;26.25;;;;;0.50;78.99;101306.22;3725606;37;21284;-64
2021/02/06 10:29:29;;;;;;;;;27.50;25.00;;;;;0.40;79.00;101316.62;3725483;37;21378;-64
2021/02/06 10:31:57;;;;;;;;;37.25;30.50;;;;;0.37;78.95;101295.53;3726375;38;21289;-66
2021/02/06 10:34:24;;;;;;;;;23.25;21.75;;;;;0.50;79.19;101285.78;3725795;38;21295;-66
2021/02/06 10:36:50;;;;;;;;;31.50;25.25;;;;;0.50;79.00;101272.47;3725953;37;21254;-65
2021/02/06 10:39:16;;;;;;;;;33.75;31.50;;;;;0.66;79.09;101277.59;3726012;37;21294;-66
2021/02/06 10:41:42;;;;;;;;;31.50;26.25;;;;;0.81;79.03;101287.22;3725849;37;21275;-65
2021/02/06 10:44:09;;;;;;;;;24.00;19.50;;;;;0.64;77.98;101261.72;3725834;38;21360;-65
2021/02/06 10:46:36;;;;;;;;;31.25;26.25;;;;;0.73;77.97;101254.91;3725654;38;21260;-65
2021/02/06 10:49:03;;;;;;;;;27.00;22.25;;;;;0.54;78.00;101238.47;3725797;38;20845;-67
2021/02/06 10:51:30;;;;;;;;;30.00;26.00;;;;;0.58;77.64;101269.25;3725993;38;20877;-67
2021/02/06 10:53:56;;;;;;;;;27.25;22.25;;;;;0.41;77.93;101262.41;3725915;38;20864;-65
2021/02/06 10:56:22;;;;;;;;;38.50;28.50;;;;;0.49;78.58;101270.75;3725962;37;20889;-66
2021/02/06 10:58:48;;;;;;;;;35.25;31.00;;;;;0.21;78.72;101229.13;3725466;37;20860;-66
2021/02/06 11:01:15;;;;;;;;;34.25;31.25;;;;;0.40;78.47;101267.84;3726203;37;20869;-66
2021/02/06 11:03:41;;;;;;;;;31.00;26.75;;;;;0.63;78.75;101256.50;3725805;37;20857;-65
2021/02/06 11:06:08;;;;;;;;;36.50;29.50;;;;;0.77;78.68;101259.09;3725737;38;20906;-65
2021/02/06 11:08:34;;;;;;;;;27.75;26.25;;;;;0.84;79.03;101251.53;3725752;37;20837;-65
2021/02/06 11:11:00;;;;;;;;;27.50;24.25;;;;;0.75;78.25;101253.00;3725431;37;20825;-70
2021/02/06 11:13:26;;;;;;;;;27.00;26.00;;;;;0.59;78.40;101247.84;3725943;37;20812;-67
2021/02/06 11:15:53;;;;;;;;;34.75;28.75;;;;;0.57;78.77;101231.13;3725831;38;20797;-66
2021/02/06 11:18:19;;;;;;;;;25.75;22.50;;;;;0.44;77.82;101248.06;3725732;37;20826;-67
2021/02/06 11:20:46;;;;;;;;;34.00;27.00;;;;;0.44;78.42;101242.72;3725791;37;20947;-65
2021/02/06 11:23:12;;;;;;;;;33.75;26.25;;;;;0.58;78.51;101231.97;3726129;37;20819;-65
2021/02/06 11:28:40;;;;;;;;;33.50;30.50;;;;;0.63;78.64;101212.06;3728140;38;20784;-69
2021/02/06 11:31:08;;;;;;;;;25.75;23.00;;;;;0.69;77.92;101213.47;3726670;38;20818;-66